Time;durP1;ratioP1;P1;durP2;ratioP2;P2;SDS_P1;SDS_P2;PMS_P1;PMS_P2;Temp;Humidity;BMP_temperature;BMP_pressure;BME280_temperature;BME280_humidity;BME280_pressure;Samples;Min_cycle;Max_cycle;Signal;HPM_P1;HPM_P2
2022/04/13 00:01:41;;;;;;;6.23;3.67;;;12.00;63.70;;;;;;5073863;28;20578;-64
2022/04/13 00:04:07;;;;;;;5.97;3.73;;;11.90;64.10;;;;;;5074420;28;20172;-65
2022/04/13 00:06:38;;;;;;;6.70;3.90;;;12.00;64.10;;;;;;5073995;28;20164;-65
2022/04/13 00:09:07;;;;;;;9.07;4.10;;;11.90;64.10;;;;;;5074880;28;20230;-65
2022/04/13 00:11:33;;;;;;;10.47;5.00;;;11.90;64.20;;;;;;5076295;28;20156;-64
2022/04/13 00:13:59;;;;;;;7.37;3.00;;;11.80;64.80;;;;;;5086093;28;20162;-65
2022/04/13 00:16:25;;;;;;;7.63;3.60;;;11.70;65.10;;;;;;5085903;28;20183;-64
2022/04/13 00:18:51;;;;;;;7.40;3.90;;;11.70;65.70;;;;;;5084889;28;20217;-64
2022/04/13 00:21:16;;;;;;;8.97;4.10;;;11.70;65.90;;;;;;5084182;28;20250;-64
2022/04/13 00:23:43;;;;;;;10.07;4.67;;;11.70;65.90;;;;;;5087657;28;20186;-66
2022/04/13 00:26:08;;;;;;;7.90;4.07;;;11.60;65.90;;;;;;5087690;28;20509;-65
2022/04/13 00:28:34;;;;;;;6.20;3.83;;;11.80;65.70;;;;;;5083648;28;20190;-64
2022/04/13 00:30:59;;;;;;;8.47;4.40;;;11.80;65.90;;;;;;5086726;28;20178;-69
2022/04/13 00:33:25;;;;;;;6.60;4.27;;;11.70;65.90;;;;;;5085015;28;20572;-67
2022/04/13 00:35:53;;;;;;;6.93;3.50;;;11.70;65.90;;;;;;5077260;28;20183;-64
2022/04/13 00:38:21;;;;;;;8.97;3.77;;;11.70;66.10;;;;;;5074246;28;20233;-64
2022/04/13 00:40:47;;;;;;;8.70;4.33;;;11.70;66.50;;;;;;5074590;28;20194;-66
2022/04/13 00:43:12;;;;;;;5.33;3.90;;;11.80;66.40;;;;;;5073975;28;20164;-65
2022/04/13 00:45:38;;;;;;;9.57;4.70;;;11.80;66.20;;;;;;5073680;28;20171;-65
2022/04/13 00:48:04;;;;;;;7.03;4.10;;;11.80;65.70;;;;;;5073779;28;20171;-66
2022/04/13 00:50:30;;;;;;;8.73;4.30;;;11.90;65.70;;;;;;5055630;28;20175;-66
2022/04/13 00:52:58;;;;;;;8.77;4.33;;;11.80;65.20;;;;;;5073537;28;20200;-65
2022/04/13 00:55:26;;;;;;;8.13;3.93;;;11.80;65.40;;;;;;5074624;28;20198;-65
2022/04/13 00:57:54;;;;;;;8.33;4.37;;;11.90;65.40;;;;;;5074921;28;20168;-65
2022/04/13 01:00:20;;;;;;;7.07;3.80;;;11.90;65.00;;;;;;5074142;28;20621;-64
2022/04/13 01:02:46;;;;;;;7.00;4.27;;;11.90;65.00;;;;;;5074524;28;20259;-66
2022/04/13 01:05:12;;;;;;;7.60;4.10;;;11.80;65.00;;;;;;5073909;28;20231;-64
2022/04/13 01:07:39;;;;;;;7.47;4.40;;;11.80;65.10;;;;;;5073662;28;20170;-65
2022/04/13 01:10:06;;;;;;;7.63;4.23;;;11.60;66.40;;;;;;5073693;28;20599;-66
2022/04/13 01:12:36;;;;;;;7.67;4.70;;;11.50;67.70;;;;;;5074070;28;20694;-64
2022/04/13 01:15:03;;;;;;;7.37;4.17;;;11.30;68.60;;;;;;5074423;28;20172;-65
2022/04/13 01:17:29;;;;;;;9.03;4.30;;;11.20;70.00;;;;;;5086005;28;20229;-66
2022/04/13 01:19:56;;;;;;;9.63;4.27;;;11.10;71.00;;;;;;5081398;28;20167;-68
2022/04/13 01:22:23;;;;;;;7.57;4.30;;;11.10;71.20;;;;;;5076383;28;20164;-65
2022/04/13 01:24:49;;;;;;;9.30;4.60;;;11.10;71.20;;;;;;5074893;28;20210;-65
2022/04/13 01:27:16;;;;;;;7.17;4.70;;;11.20;71.30;;;;;;5073746;28;20164;-64
2022/04/13 01:29:43;;;;;;;7.10;4.03;;;11.10;72.00;;;;;;5073209;28;20162;-65
2022/04/13 01:32:10;;;;;;;7.90;4.00;;;11.10;72.10;;;;;;5073224;28;20503;-65
2022/04/13 01:34:36;;;;;;;6.60;4.27;;;11.20;71.90;;;;;;5072881;28;20152;-64
2022/04/13 01:37:03;;;;;;;9.93;4.73;;;11.30;71.50;;;;;;5073485;28;20488;-64
2022/04/13 01:39:29;;;;;;;9.00;4.13;;;11.20;72.00;;;;;;5073746;28;20164;-65
2022/04/13 01:41:55;;;;;;;7.70;4.03;;;11.30;71.50;;;;;;5073976;28;20198;-65
2022/04/13 01:44:21;;;;;;;9.37;4.17;;;11.20;71.30;;;;;;5075464;28;20164;-65
2022/04/13 01:46:47;;;;;;;7.23;4.13;;;11.30;71.40;;;;;;5075992;28;20186;-65
2022/04/13 01:49:12;;;;;;;8.23;4.67;;;11.30;71.40;;;;;;5076881;28;20152;-65
2022/04/13 01:51:38;;;;;;;9.37;4.63;;;11.40;71.50;;;;;;5076341;28;20554;-64
2022/04/13 01:54:04;;;;;;;7.50;4.33;;;11.40;71.20;;;;;;5056886;28;20190;-65
2022/04/13 01:56:29;;;;;;;7.93;4.60;;;11.30;71.10;;;;;;5074319;28;20666;-64
2022/04/13 01:58:55;;;;;;;9.57;4.50;;;11.40;71.50;;;;;;5077144;28;20614;-66
2022/04/13 02:01:20;;;;;;;8.43;4.50;;;11.40;71.20;;;;;;5077311;28;20199;-65
2022/04/13 02:03:46;;;;;;;9.83;4.70;;;11.40;71.50;;;;;;5077135;28;20179;-65
2022/04/13 02:06:14;;;;;;;7.53;4.37;;;11.40;71.00;;;;;;5059632;28;20179;-66
2022/04/13 02:08:40;;;;;;;7.93;4.47;;;11.50;70.50;;;;;;5077213;28;20191;-65
2022/04/13 02:11:06;;;;;;;8.27;4.80;;;11.50;70.60;;;;;;5076723;28;20198;-65
2022/04/13 02:13:31;;;;;;;7.67;4.43;;;11.50;70.20;;;;;;5077380;28;20206;-65
2022/04/13 02:15:57;;;;;;;8.67;4.77;;;11.40;70.50;;;;;;5076750;28;20157;-66
2022/04/13 02:18:22;;;;;;;14.83;4.43;;;11.40;70.30;;;;;;5076499;28;20171;-65
2022/04/13 02:20:50;;;;;;;9.67;4.50;;;11.40;70.50;;;;;;5076461;28;20202;-65
2022/04/13 02:23:15;;;;;;;9.27;4.80;;;11.50;70.50;;;;;;5076555;28;20175;-65
2022/04/13 02:25:41;;;;;;;9.90;4.50;;;11.50;70.30;;;;;;5076679;28;20168;-66
2022/04/13 02:28:07;;;;;;;12.23;5.10;;;11.50;70.00;;;;;;5076325;28;20159;-65
2022/04/13 02:30:33;;;;;;;8.93;4.63;;;11.50;70.20;;;;;;5076021;28;20172;-65
2022/04/13 02:32:59;;;;;;;8.20;4.53;;;11.40;70.50;;;;;;5076683;28;20168;-67
2022/04/13 02:35:25;;;;;;;8.33;4.47;;;11.40;70.50;;;;;;5076903;28;20163;-65
2022/04/13 02:37:51;;;;;;;9.93;4.90;;;11.40;70.80;;;;;;5077679;28;20266;-64
2022/04/13 02:40:16;;;;;;;9.60;5.17;;;11.30;71.20;;;;;;5059746;28;20195;-65
2022/04/13 02:42:42;;;;;;;9.47;4.93;;;11.30;71.10;;;;;;5077029;28;20206;-68
2022/04/13 02:45:09;;;;;;;8.23;4.30;;;11.30;71.30;;;;;;5076328;28;20166;-65
2022/04/13 02:47:35;;;;;;;7.70;4.47;;;11.30;71.40;;;;;;5078130;28;20491;-65
2022/04/13 02:50:01;;;;;;;7.53;4.57;;;11.30;71.40;;;;;;5077569;28;20166;-65
2022/04/13 02:52:30;;;;;;;8.67;4.83;;;11.20;71.30;;;;;;5058117;28;20266;-66
2022/04/13 02:54:57;;;;;;;7.33;5.00;;;11.20;71.30;;;;;;5076489;28;20197;-65
2022/04/13 02:57:22;;;;;;;8.23;4.77;;;11.30;72.20;;;;;;5075530;28;20574;-65
2022/04/13 02:59:49;;;;;;;8.93;4.90;;;11.20;71.80;;;;;;5075979;28;20187;-64
2022/04/13 03:02:15;;;;;;;14.30;5.27;;;11.20;72.10;;;;;;5075912;28;20199;-64
2022/04/13 03:04:43;;;;;;;8.00;4.60;;;11.20;72.10;;;;;;5076105;28;20714;-65
2022/04/13 03:07:11;;;;;;;8.00;4.67;;;11.20;72.30;;;;;;5075464;28;20169;-64
2022/04/13 03:09:38;;;;;;;6.93;3.97;;;11.20;73.30;;;;;;5076034;28;20587;-65
2022/04/13 03:12:07;;;;;;;8.83;5.27;;;11.20;72.50;;;;;;5075660;28;20522;-64
2022/04/13 03:14:34;;;;;;;7.73;5.00;;;11.20;72.70;;;;;;5075519;28;20161;-64
2022/04/13 03:17:00;;;;;;;7.97;4.77;;;11.20;72.90;;;;;;5076518;28;20171;-65
2022/04/13 03:19:26;;;;;;;8.53;4.60;;;11.20;72.30;;;;;;5075867;28;20544;-64
2022/04/13 03:21:53;;;;;;;9.37;4.80;;;11.10;73.10;;;;;;5076225;28;20199;-65
2022/04/13 03:24:20;;;;;;;9.27;4.40;;;11.20;73.10;;;;;;5057756;28;20706;-65
2022/04/13 03:26:46;;;;;;;10.17;4.87;;;11.20;73.40;;;;;;5075914;28;20164;-67
2022/04/13 03:29:11;;;;;;;12.57;4.90;;;11.10;73.80;;;;;;5075757;28;20247;-66
2022/04/13 03:31:37;;;;;;;8.70;4.90;;;11.00;74.10;;;;;;5075800;28;20293;-65
2022/04/13 03:34:03;;;;;;;7.97;5.07;;;11.00;74.10;;;;;;5075778;28;20610;-64
2022/04/13 03:36:28;;;;;;;8.73;4.73;;;11.00;74.40;;;;;;5075506;28;20175;-65
2022/04/13 03:38:54;;;;;;;10.07;4.67;;;11.00;74.50;;;;;;5084955;28;20237;-64
2022/04/13 03:41:19;;;;;;;10.43;4.43;;;11.00;74.80;;;;;;5090734;28;20560;-66
2022/04/13 03:43:45;;;;;;;9.67;5.27;;;10.90;75.10;;;;;;5092392;28;20215;-69
2022/04/13 03:46:11;;;;;;;9.13;5.00;;;10.80;75.70;;;;;;5083576;28;20643;-66
2022/04/13 03:48:37;;;;;;;9.03;5.03;;;10.90;75.90;;;;;;5058091;28;20330;-66
2022/04/13 03:51:02;;;;;;;11.90;5.10;;;10.90;75.70;;;;;;5075483;28;20162;-64
2022/04/13 03:53:28;;;;;;;10.63;5.27;;;10.90;75.70;;;;;;5075665;28;20194;-64
2022/04/13 03:55:54;;;;;;;6.30;4.30;;;10.90;75.60;;;;;;5075345;28;20170;-65
2022/04/13 03:58:20;;;;;;;9.53;5.50;;;10.90;75.80;;;;;;5075287;28;20216;-64
2022/04/13 04:00:45;;;;;;;11.20;5.03;;;10.80;76.00;;;;;;5074828;28;20192;-65
2022/04/13 04:03:11;;;;;;;10.53;4.77;;;10.80;76.40;;;;;;5074770;28;20248;-65
2022/04/13 04:05:37;;;;;;;8.40;5.10;;;10.80;76.50;;;;;;5074751;28;20182;-65
2022/04/13 04:08:03;;;;;;;7.27;4.80;;;10.80;76.50;;;;;;5075660;28;20365;-64
2022/04/13 04:10:28;;;;;;;10.00;5.43;;;10.80;76.50;;;;;;5075384;28;20247;-64
2022/04/13 04:12:55;;;;;;;10.20;4.80;;;10.80;77.10;;;;;;5077026;28;20164;-63
2022/04/13 04:15:21;;;;;;;10.13;4.90;;;10.80;77.20;;;;;;5075652;28;20152;-65
2022/04/13 04:17:46;;;;;;;11.37;5.43;;;10.80;77.40;;;;;;5075127;28;20620;-65
2022/04/13 04:20:12;;;;;;;11.37;5.30;;;10.70;77.10;;;;;;5074076;28;20171;-65
2022/04/13 04:22:38;;;;;;;8.70;5.03;;;10.70;77.60;;;;;;5075294;28;20172;-64
2022/04/13 04:25:07;;;;;;;10.77;4.63;;;10.80;77.70;;;;;;5057648;28;20549;-65
2022/04/13 04:27:33;;;;;;;8.20;4.57;;;10.80;77.40;;;;;;5074579;28;20185;-65
2022/04/13 04:29:59;;;;;;;11.60;5.10;;;10.70;77.90;;;;;;5074536;28;20564;-65
2022/04/13 04:32:25;;;;;;;8.47;4.83;;;10.70;78.40;;;;;;5074577;28;20202;-65
2022/04/13 04:34:51;;;;;;;9.40;5.50;;;10.70;78.40;;;;;;5074871;28;20170;-65
2022/04/13 04:37:17;;;;;;;9.80;5.13;;;10.70;78.60;;;;;;5074936;28;20597;-64
2022/04/13 04:39:42;;;;;;;11.23;5.47;;;10.70;78.80;;;;;;5074440;28;20217;-66
2022/04/13 04:42:08;;;;;;;8.97;5.07;;;10.70;79.10;;;;;;5057263;28;20199;-64
2022/04/13 04:44:36;;;;;;;8.03;4.37;;;10.70;79.20;;;;;;5075357;28;20226;-65
2022/04/13 04:47:01;;;;;;;10.40;5.60;;;10.70;79.30;;;;;;5075382;28;20174;-65
2022/04/13 04:49:27;;;;;;;11.13;5.13;;;10.70;78.90;;;;;;5077938;28;20152;-69
2022/04/13 04:51:53;;;;;;;8.70;5.13;;;10.80;79.00;;;;;;5084986;28;20171;-64
2022/04/13 04:54:18;;;;;;;11.17;5.43;;;10.70;79.30;;;;;;5088177;28;20250;-70
2022/04/13 04:56:44;;;;;;;7.30;4.57;;;10.80;79.10;;;;;;5084889;28;20191;-66
2022/04/13 04:59:09;;;;;;;9.43;5.00;;;10.80;78.90;;;;;;5088236;28;20172;-65
2022/04/13 05:01:35;;;;;;;9.07;4.90;;;10.80;79.40;;;;;;5084132;28;20191;-65
2022/04/13 05:04:03;;;;;;;8.97;4.97;;;10.80;79.20;;;;;;5080606;28;20503;-65
2022/04/13 05:06:29;;;;;;;10.70;5.47;;;10.90;79.50;;;;;;5081446;28;20152;-64
2022/04/13 05:08:55;;;;;;;8.13;5.10;;;10.90;79.10;;;;;;5084916;28;20163;-64
2022/04/13 05:11:22;;;;;;;10.80;5.80;;;10.90;79.00;;;;;;5081050;28;20160;-64
2022/04/13 05:13:48;;;;;;;9.73;5.27;;;11.00;78.50;;;;;;5075105;28;20529;-64
2022/04/13 05:16:14;;;;;;;10.63;4.87;;;11.20;78.60;;;;;;5074296;28;20242;-65
2022/04/13 05:18:41;;;;;;;8.63;4.67;;;11.10;78.10;;;;;;5073958;28;20551;-64
2022/04/13 05:21:07;;;;;;;10.07;5.37;;;11.10;77.80;;;;;;5073437;28;20530;-63
2022/04/13 05:23:33;;;;;;;7.73;4.77;;;11.20;77.30;;;;;;5073822;28;20167;-65
2022/04/13 05:25:58;;;;;;;10.67;5.37;;;11.30;77.10;;;;;;5073845;28;20169;-65
2022/04/13 05:28:24;;;;;;;11.73;4.97;;;11.30;77.40;;;;;;5073803;28;20547;-64
2022/04/13 05:30:50;;;;;;;12.03;5.30;;;11.30;77.00;;;;;;5055728;28;20181;-65
2022/04/13 05:33:15;;;;;;;9.07;4.83;;;11.40;76.60;;;;;;5077202;28;20677;-64
2022/04/13 05:35:41;;;;;;;9.97;4.97;;;11.50;76.20;;;;;;5059447;28;20175;-63
2022/04/13 05:38:07;;;;;;;14.90;5.47;;;11.50;76.10;;;;;;5078927;28;20235;-66
2022/04/13 05:40:33;;;;;;;8.03;5.03;;;11.60;75.80;;;;;;5077409;28;20607;-65
2022/04/13 05:42:59;;;;;;;7.83;4.53;;;11.60;75.50;;;;;;5059123;28;20190;-64
2022/04/13 05:45:25;;;;;;;11.20;5.50;;;11.70;75.60;;;;;;5077886;28;20162;-63
2022/04/13 05:47:51;;;;;;;10.43;5.83;;;11.80;75.10;;;;;;5079544;28;20156;-64
2022/04/13 05:50:16;;;;;;;8.67;4.77;;;11.90;74.90;;;;;;5080710;28;20159;-64
2022/04/13 05:52:44;;;;;;;7.50;5.00;;;11.90;74.60;;;;;;5062762;28;20187;-64
2022/04/13 05:55:11;;;;;;;8.23;4.70;;;11.90;74.30;;;;;;5080015;28;20184;-66
2022/04/13 05:57:36;;;;;;;12.73;5.60;;;12.00;74.00;;;;;;5079333;28;20185;-65
2022/04/13 06:00:07;;;;;;;10.67;4.80;;;12.10;73.70;;;;;;5077133;28;20227;-65
2022/04/13 06:02:33;;;;;;;9.57;5.40;;;12.20;73.30;;;;;;5087596;28;20182;-64
2022/04/13 06:04:59;;;;;;;13.13;4.83;;;12.30;72.70;;;;;;5086493;28;20168;-66
2022/04/13 06:07:24;;;;;;;13.63;5.43;;;12.30;72.40;;;;;;5083799;28;20228;-64
2022/04/13 06:09:50;;;;;;;12.03;5.73;;;12.30;72.40;;;;;;5078106;28;20163;-65
2022/04/13 06:12:23;;;;;;;8.70;4.80;;;12.40;72.20;;;;;;5076867;28;20565;-67
2022/04/13 06:14:49;;;;;;;9.37;5.47;;;12.40;71.90;;;;;;5077719;28;20509;-65
2022/04/13 06:17:16;;;;;;;8.37;4.73;;;12.50;71.70;;;;;;5076320;28;20166;-66
2022/04/13 06:19:42;;;;;;;9.57;5.30;;;12.50;71.20;;;;;;5076603;28;20657;-65
2022/04/13 06:22:07;;;;;;;13.90;5.37;;;12.60;71.00;;;;;;5076682;28;20202;-64
2022/04/13 06:24:33;;;;;;;9.57;4.80;;;12.70;71.20;;;;;;5076796;28;20513;-64
2022/04/13 06:26:59;;;;;;;9.50;5.50;;;12.70;70.80;;;;;;5059391;28;20267;-66
2022/04/13 06:29:24;;;;;;;8.47;4.97;;;12.80;70.60;;;;;;5076432;28;20298;-66
2022/04/13 06:31:50;;;;;;;14.13;5.77;;;12.80;70.20;;;;;;5077004;28;20176;-65
2022/04/13 06:34:16;;;;;;;11.87;5.00;;;12.90;70.20;;;;;;5076848;28;20266;-65
2022/04/13 06:36:42;;;;;;;9.63;5.27;;;12.90;70.20;;;;;;5076939;28;20183;-64
2022/04/13 06:39:08;;;;;;;11.83;5.57;;;13.00;70.20;;;;;;5076104;28;20235;-65
2022/04/13 06:41:33;;;;;;;9.20;4.83;;;12.90;69.70;;;;;;5076582;28;20654;-64
2022/04/13 06:43:59;;;;;;;10.53;5.40;;;12.90;69.80;;;;;;5076279;28;20168;-64
2022/04/13 06:46:25;;;;;;;9.27;5.27;;;12.90;70.00;;;;;;5076226;28;20244;-65
2022/04/13 06:48:50;;;;;;;12.40;5.73;;;13.00;69.90;;;;;;5076920;28;20164;-66
2022/04/13 06:51:16;;;;;;;13.40;6.40;;;13.10;69.60;;;;;;5077112;28;20243;-65
2022/04/13 06:53:41;;;;;;;18.60;6.40;;;13.20;69.90;;;;;;5076764;28;20167;-66
2022/04/13 06:56:07;;;;;;;10.40;5.27;;;13.30;69.60;;;;;;5060266;28;20167;-66
2022/04/13 06:58:33;;;;;;;10.67;5.63;;;13.30;69.10;;;;;;5077794;28;20170;-64
2022/04/13 07:00:59;;;;;;;10.70;5.47;;;13.30;69.00;;;;;;5077788;28;20659;-65
2022/04/13 07:03:25;;;;;;;9.27;5.07;;;13.40;69.00;;;;;;5059453;28;20262;-65
2022/04/13 07:05:51;;;;;;;10.53;5.17;;;13.40;69.20;;;;;;5076639;28;20291;-64
2022/04/13 07:08:16;;;;;;;15.83;6.30;;;13.50;69.10;;;;;;5060582;28;20190;-64
2022/04/13 07:10:42;;;;;;;12.10;5.20;;;13.50;68.40;;;;;;5077889;28;20598;-66
2022/04/13 07:13:09;;;;;;;8.63;5.20;;;13.60;68.70;;;;;;5077909;28;20189;-66
2022/04/13 07:15:34;;;;;;;10.23;5.50;;;13.70;68.70;;;;;;5078116;28;20156;-64
2022/04/13 07:18:00;;;;;;;12.13;5.10;;;13.70;68.70;;;;;;5077914;28;20166;-65
2022/04/13 07:20:26;;;;;;;9.57;5.07;;;13.90;68.70;;;;;;5077638;28;20179;-64
2022/04/13 07:22:53;;;;;;;10.57;5.93;;;14.00;68.40;;;;;;5076249;28;20172;-66
2022/04/13 07:25:20;;;;;;;12.53;5.67;;;14.10;67.70;;;;;;5076476;28;20207;-65
2022/04/13 07:27:47;;;;;;;10.00;5.67;;;14.10;67.50;;;;;;5076017;28;20267;-65
2022/04/13 07:30:13;;;;;;;10.87;5.30;;;14.30;67.50;;;;;;5057736;28;20213;-67
2022/04/13 07:32:39;;;;;;;11.33;5.73;;;14.40;67.00;;;;;;5057701;28;20209;-66
2022/04/13 07:35:06;;;;;;;11.87;5.83;;;14.50;67.10;;;;;;5075142;28;20155;-65
2022/04/13 07:37:32;;;;;;;11.60;5.83;;;14.60;67.10;;;;;;5075565;28;20682;-64
2022/04/13 07:39:58;;;;;;;9.40;4.93;;;14.70;66.20;;;;;;5075291;28;20159;-65
2022/04/13 07:42:28;;;;;;;9.63;5.20;;;14.90;66.10;;;;;;5075179;28;20582;-65
2022/04/13 07:44:54;;;;;;;10.87;5.80;;;14.80;65.20;;;;;;5075132;28;20203;-65
2022/04/13 07:47:21;;;;;;;15.17;5.93;;;14.90;64.40;;;;;;5075194;28;20246;-64
2022/04/13 07:49:47;;;;;;;13.03;5.87;;;15.20;64.70;;;;;;5075420;28;20577;-64
2022/04/13 07:52:13;;;;;;;10.20;5.43;;;15.30;63.80;;;;;;5074599;28;20263;-65
2022/04/13 07:54:39;;;;;;;11.53;6.33;;;15.50;63.40;;;;;;5073818;28;20600;-66
2022/04/13 07:57:05;;;;;;;12.83;6.63;;;15.50;62.40;;;;;;5074979;28;20164;-65
2022/04/13 07:59:31;;;;;;;11.33;6.10;;;15.60;62.10;;;;;;5074890;28;20478;-65
2022/04/13 08:01:57;;;;;;;12.13;6.43;;;15.70;61.90;;;;;;5075382;28;20199;-66
2022/04/13 08:04:23;;;;;;;11.90;6.03;;;15.70;61.60;;;;;;5075000;28;20596;-66
2022/04/13 08:06:49;;;;;;;12.57;5.13;;;15.80;61.30;;;;;;5074799;28;20240;-65
2022/04/13 08:09:14;;;;;;;10.50;5.80;;;15.80;60.90;;;;;;5075374;28;20167;-65
2022/04/13 08:11:40;;;;;;;10.70;6.07;;;15.90;60.40;;;;;;5075457;28;20170;-66
2022/04/13 08:14:06;;;;;;;12.17;6.47;;;16.10;60.70;;;;;;5074692;28;20213;-64
2022/04/13 08:16:32;;;;;;;10.97;5.60;;;16.30;60.30;;;;;;5075079;28;20160;-66
2022/04/13 08:18:57;;;;;;;10.50;5.67;;;16.20;59.60;;;;;;5074723;28;20164;-65
2022/04/13 08:21:23;;;;;;;9.50;5.57;;;16.30;59.40;;;;;;5075231;28;20191;-65
2022/04/13 08:23:49;;;;;;;12.77;5.67;;;16.30;59.20;;;;;;5075837;28;20179;-67
2022/04/13 08:26:15;;;;;;;10.83;6.20;;;16.40;58.90;;;;;;5077333;28;20168;-65
2022/04/13 08:28:40;;;;;;;10.83;5.90;;;16.40;59.00;;;;;;5080007;28;20220;-65
2022/04/13 08:31:09;;;;;;;14.20;6.63;;;16.40;59.00;;;;;;5078679;28;20164;-66
2022/04/13 08:33:35;;;;;;;10.20;5.27;;;16.60;58.90;;;;;;5078559;28;20190;-65
2022/04/13 08:36:01;;;;;;;10.57;5.90;;;16.80;58.60;;;;;;5078360;28;20257;-66
2022/04/13 08:38:27;;;;;;;10.20;5.63;;;16.80;58.60;;;;;;5078558;28;20599;-66
2022/04/13 08:41:09;;;;;;;8.33;5.63;;;17.00;58.40;;;;;;5077145;28;20207;-65
2022/04/13 08:43:52;;;;;;;14.70;5.53;;;17.00;57.80;;;;;;5075269;28;20221;-66
2022/04/13 08:46:25;;;;;;;11.15;5.32;;;17.00;58.10;;;;;;5074540;28;20180;-64
2022/04/13 08:48:55;;;;;;;9.63;5.35;;;17.20;58.00;;;;;;5056795;28;20171;-65
2022/04/13 08:51:23;;;;;;;13.38;5.95;;;17.40;57.70;;;;;;5075729;28;20199;-65
2022/04/13 08:54:19;;;;;;;10.30;5.55;;;17.50;57.60;;;;;;5076669;28;20160;-65
2022/04/13 08:56:48;;;;;;;12.83;5.20;;;17.60;57.70;;;;;;5058085;28;20187;-65
2022/04/13 08:59:38;;;;;;;8.32;4.90;;;17.70;56.80;;;;;;5076254;28;20164;-65
2022/04/13 09:02:21;;;;;;;11.13;6.50;;;18.10;56.60;;;;;;5074113;28;20199;-65
2022/04/13 09:04:48;;;;;;;7.68;4.97;;;18.00;55.80;;;;;;5073818;28;20237;-65
2022/04/13 09:07:16;;;;;;;8.40;5.43;;;17.80;56.40;;;;;;5073514;28;20171;-65
2022/04/13 09:09:46;;;;;;;9.52;5.45;;;17.80;55.80;;;;;;5056294;28;20183;-65
2022/04/13 09:12:13;;;;;;;10.95;5.38;;;17.80;55.70;;;;;;5073994;28;20647;-66
2022/04/13 09:14:39;;;;;;;10.55;5.57;;;18.00;55.90;;;;;;5073361;28;20516;-64
2022/04/13 09:17:05;;;;;;;12.75;5.53;;;18.10;55.80;;;;;;5074288;28;20565;-65
2022/04/13 09:19:32;;;;;;;10.60;5.45;;;18.10;55.90;;;;;;5073580;28;20489;-65
2022/04/13 09:21:59;;;;;;;9.27;4.85;;;18.20;55.90;;;;;;5073577;28;20191;-65
2022/04/13 09:24:27;;;;;;;7.25;4.72;;;18.50;56.20;;;;;;5073357;28;20521;-65
2022/04/13 09:26:54;;;;;;;8.43;5.10;;;18.60;55.30;;;;;;5073573;28;20160;-66
2022/04/13 09:29:19;;;;;;;9.30;4.72;;;18.90;55.00;;;;;;5073569;28;20171;-65
2022/04/13 09:31:45;;;;;;;7.97;4.80;;;18.70;54.80;;;;;;5073293;28;20293;-65
2022/04/13 09:34:11;;;;;;;11.43;5.32;;;18.90;54.80;;;;;;5073473;28;20171;-65
2022/04/13 09:36:38;;;;;;;10.63;5.15;;;18.90;54.60;;;;;;5073262;28;20663;-65
2022/04/13 09:39:03;;;;;;;10.05;4.72;;;19.00;54.20;;;;;;5073033;28;20569;-67
2022/04/13 09:41:37;;;;;;;11.18;5.30;;;18.90;54.10;;;;;;5055483;28;20199;-66
2022/04/13 09:44:18;;;;;;;7.22;4.85;;;19.10;54.00;;;;;;5073564;28;20540;-65
2022/04/13 09:46:45;;;;;;;9.70;4.68;;;19.30;53.90;;;;;;5073403;28;20220;-65
2022/04/13 09:49:13;;;;;;;9.52;4.93;;;19.20;53.40;;;;;;5073891;28;20175;-65
2022/04/13 09:51:41;;;;;;;8.52;4.95;;;19.20;52.90;;;;;;5074131;28;20205;-64
2022/04/13 09:54:07;;;;;;;7.63;4.70;;;19.40;53.40;;;;;;5074685;28;20171;-66
2022/04/13 09:56:35;;;;;;;8.68;5.05;;;19.50;53.40;;;;;;5073283;28;20217;-64
2022/04/13 09:59:00;;;;;;;8.02;4.72;;;19.50;53.00;;;;;;5072849;28;20251;-65
2022/04/13 10:01:28;;;;;;;7.68;4.60;;;19.60;53.10;;;;;;5073456;28;20279;-66
2022/04/13 10:03:55;;;;;;;7.78;4.60;;;19.80;53.10;;;;;;5073750;28;20159;-66
2022/04/13 10:06:30;;;;;;;9.80;5.50;;;19.70;52.30;;;;;;5078073;28;20156;-66
2022/04/13 10:09:08;;;;;;;8.68;4.80;;;19.70;52.50;;;;;;5077766;28;20182;-66
2022/04/13 10:11:34;;;;;;;8.07;4.80;;;19.80;52.80;;;;;;5075301;28;20169;-65
2022/04/13 10:14:05;;;;;;;10.07;4.82;;;20.00;52.50;;;;;;5073308;28;20187;-64
2022/04/13 10:16:35;;;;;;;6.22;3.90;;;20.00;52.30;;;;;;5054648;28;20175;-64
2022/04/13 10:19:05;;;;;;;7.70;4.20;;;20.10;51.80;;;;;;5074956;28;20187;-65
2022/04/13 10:21:46;;;;;;;11.30;5.38;;;20.10;51.00;;;;;;5076104;28;20511;-67
2022/04/13 10:24:21;;;;;;;6.28;4.07;;;20.40;51.30;;;;;;5058745;28;20183;-66
2022/04/13 10:27:12;;;;;;;6.93;4.60;;;20.70;51.20;;;;;;5076555;28;20217;-65
2022/04/13 10:29:41;;;;;;;7.82;4.22;;;20.60;50.70;;;;;;5076813;28;20159;-65
2022/04/13 10:32:14;;;;;;;9.23;4.75;;;20.60;50.60;;;;;;5076745;28;20613;-65
2022/04/13 10:34:40;;;;;;;6.38;4.18;;;20.70;50.60;;;;;;5058126;28;20175;-65
2022/04/13 10:37:07;;;;;;;5.90;4.03;;;20.90;50.40;;;;;;5076330;28;20199;-66
2022/04/13 10:39:34;;;;;;;6.07;3.80;;;20.90;49.70;;;;;;5076218;28;20184;-66
2022/04/13 10:42:02;;;;;;;6.03;3.70;;;20.80;49.00;;;;;;5077118;28;20245;-65
2022/04/13 10:44:30;;;;;;;6.25;3.70;;;20.90;49.40;;;;;;5076716;28;20171;-65
2022/04/13 10:47:00;;;;;;;4.80;3.25;;;21.10;49.50;;;;;;5076529;28;20213;-65
2022/04/13 10:49:30;;;;;;;5.28;3.55;;;21.10;49.40;;;;;;5075872;28;20159;-65
2022/04/13 10:52:02;;;;;;;6.28;3.45;;;21.20;48.10;;;;;;5076388;28;20244;-65
2022/04/13 10:54:35;;;;;;;5.78;3.40;;;21.40;48.80;;;;;;5075785;28;20184;-65
2022/04/13 10:57:02;;;;;;;6.63;3.60;;;21.50;48.40;;;;;;5075905;28;20163;-65
2022/04/13 10:59:36;;;;;;;5.72;3.47;;;21.30;47.60;;;;;;5075622;28;20160;-67
2022/04/13 11:02:08;;;;;;;5.57;3.58;;;21.50;48.00;;;;;;5076076;28;20201;-66
2022/04/13 11:04:34;;;;;;;5.30;3.28;;;21.50;47.60;;;;;;5076056;28;20486;-66
2022/04/13 11:07:02;;;;;;;6.68;3.38;;;21.50;47.60;;;;;;5075599;28;20162;-65
2022/04/13 11:09:32;;;;;;;5.43;3.58;;;21.60;47.10;;;;;;5075797;28;20476;-65
2022/04/13 11:12:00;;;;;;;5.68;3.40;;;21.50;47.60;;;;;;5075850;28;20168;-66
2022/04/13 11:14:27;;;;;;;5.18;3.40;;;21.60;47.80;;;;;;5076328;28;20167;-65
2022/04/13 11:17:23;;;;;;;5.88;3.08;;;21.80;47.30;;;;;;5076771;28;20160;-65
2022/04/13 11:19:49;;;;;;;7.35;2.78;;;21.80;47.00;;;;;;5056031;28;20218;-65
2022/04/13 11:22:18;;;;;;;7.13;3.33;;;21.90;47.20;;;;;;5075607;28;20192;-65
2022/04/13 11:24:46;;;;;;;6.07;3.20;;;21.80;46.60;;;;;;5075692;28;20220;-65
2022/04/13 11:27:12;;;;;;;4.70;3.20;;;21.70;46.30;;;;;;5057918;28;20551;-66
2022/04/13 11:29:43;;;;;;;4.65;3.28;;;21.60;46.50;;;;;;5056027;28;20176;-65
2022/04/13 11:32:12;;;;;;;8.20;3.20;;;21.80;46.60;;;;;;5075879;28;20175;-65
2022/04/13 11:34:50;;;;;;;5.78;3.22;;;21.80;46.00;;;;;;5075702;28;20160;-65
2022/04/13 11:37:20;;;;;;;4.70;3.30;;;22.00;45.70;;;;;;5075537;28;20227;-65
2022/04/13 11:40:06;;;;;;;6.95;3.17;;;21.80;45.00;;;;;;5075352;28;20214;-67
2022/04/13 11:42:38;;;;;;;4.55;3.40;;;21.80;45.60;;;;;;5075590;28;20609;-65
2022/04/13 11:45:17;;;;;;;5.78;3.13;;;22.00;45.90;;;;;;5075569;28;20164;-66
2022/04/13 11:47:49;;;;;;;4.57;3.40;;;22.00;45.50;;;;;;5076239;28;20709;-69
2022/04/13 11:50:14;;;;;;;7.43;3.40;;;21.70;44.80;;;;;;5079111;28;20250;-66
2022/04/13 11:52:57;;;;;;;5.35;3.13;;;21.70;44.90;;;;;;5078426;28;20202;-65
2022/04/13 11:55:55;;;;;;;6.03;3.22;;;21.70;45.30;;;;;;5041410;28;20175;-65
2022/04/13 11:58:22;;;;;;;4.35;3.20;;;21.90;45.20;;;;;;5002928;28;20187;-65
2022/04/13 12:01:07;;;;;;;4.57;3.13;;;21.80;44.80;;;;;;5074319;28;20519;-67
2022/04/13 12:03:35;;;;;;;7.32;3.90;;;21.90;44.70;;;;;;5074648;28;20160;-65
2022/04/13 12:06:07;;;;;;;7.45;3.88;;;21.90;44.00;;;;;;5074662;28;20175;-66
2022/04/13 12:08:38;;;;;;;6.13;3.30;;;22.10;44.30;;;;;;5074997;28;20251;-66
2022/04/13 12:11:05;;;;;;;6.00;3.97;;;22.10;44.40;;;;;;5056955;28;20206;-66
2022/04/13 12:13:44;;;;;;;6.60;3.90;;;22.10;44.00;;;;;;5074196;28;20156;-66
2022/04/13 12:16:15;;;;;;;6.00;3.63;;;21.80;43.60;;;;;;5074222;28;20164;-66
2022/04/13 12:18:41;;;;;;;8.00;3.70;;;21.90;44.20;;;;;;5074516;28;20166;-65
2022/04/13 12:21:12;;;;;;;6.38;4.10;;;21.90;43.80;;;;;;5074622;28;20187;-66
2022/04/13 12:23:39;;;;;;;5.88;3.72;;;21.90;43.60;;;;;;5075156;28;20167;-67
2022/04/13 12:26:06;;;;;;;5.53;3.53;;;21.90;43.30;;;;;;5074530;28;20174;-65
2022/04/13 12:28:32;;;;;;;6.68;3.78;;;22.10;43.30;;;;;;5074100;28;20179;-66
2022/04/13 12:31:00;;;;;;;6.38;3.60;;;21.90;42.50;;;;;;5058539;28;20506;-66
2022/04/13 12:33:27;;;;;;;4.68;3.22;;;22.10;42.70;;;;;;5077389;28;20180;-65
2022/04/13 12:36:02;;;;;;;5.25;3.85;;;22.20;42.80;;;;;;5078465;28;20665;-66
2022/04/13 12:38:33;;;;;;;5.38;3.42;;;22.20;42.50;;;;;;5076512;28;20237;-65
2022/04/13 12:41:10;;;;;;;5.43;3.42;;;21.90;42.20;;;;;;5075134;28;20191;-66
2022/04/13 12:43:38;;;;;;;5.70;3.85;;;22.00;42.60;;;;;;5077983;28;20165;-65
2022/04/13 12:46:26;;;;;;;7.22;4.15;;;21.80;42.40;;;;;;5059798;28;20501;-65